EHGG/GRQ METAR and TAF weather

Enter ICAO airport designator
Station Type Date Time Source
EHGG METAR 2019/08/19 07:55 UTC NOAA

EHGG 190755Z AUTO 22014KT 190V260 9999 SCT015 BKN019 BKN023 18/14 Q1011 NOSIG


Station Type Date Time Source
EHGG Decoded METAR 2019/08/19 07:55 UTC NOAA

Station name not available
Aug 19, 2019 - 03:55 AM EDT / 2019.08.19 0755 UTC
Wind: from the SW (220 degrees) at 16 MPH (14 KT) (direction variable):0
Visibility: greater than 7 mile(s):0
Sky conditions: mostly cloudy
Temperature: 64 F (18 C)
Dew Point: 57 F (14 C)
Relative Humidity: 77%
Pressure (altimeter): 29.85 in. Hg (1011 hPa)
ob: EHGG 190755Z AUTO 22014KT 190V260 9999 SCT015 BKN019 BKN023 18/14 Q1011 NOSIG
cycle: 8

Station Type Date Time Source
EHGG TAF 2019/08/19 06:27 UTC NOAA

TAF EHGG 190446Z 1906/2012 21011KT 9999 SCT025 PROB40
TEMPO 1906/1917 24020G30KT 6000 SHRA SCT020CB
BECMG 1908/1911 23017G27KT
BECMG 1915/1918 24010KT
BECMG 1918/1921 20007KT
BECMG 2008/2010 24011KT PROB30
TEMPO 2009/2012 6000 SHRA SCT025CB

Example: see airport list